createdAt,value
2022-08-23T00:01:58.300Z,23.20
2022-08-23T00:04:34.733Z,23.10
2022-08-23T00:07:05.399Z,23.00
2022-08-23T00:09:32.544Z,23.00
2022-08-23T00:12:22.637Z,22.90
2022-08-23T00:14:54.431Z,22.80
2022-08-23T00:17:31.139Z,22.80
2022-08-23T00:20:00.936Z,22.70
2022-08-23T00:22:27.867Z,22.70
2022-08-23T00:24:54.805Z,22.60
2022-08-23T00:27:21.659Z,22.60
2022-08-23T00:29:57.456Z,22.50
2022-08-23T00:32:32.525Z,22.50
2022-08-23T00:35:03.827Z,22.40
2022-08-23T00:37:32.654Z,22.40
2022-08-23T00:40:00.980Z,22.30
2022-08-23T00:43:27.081Z,22.20
2022-08-23T00:46:50.737Z,22.10
2022-08-23T00:49:19.429Z,22.10
2022-08-23T00:51:57.563Z,22.00
2022-08-23T00:54:28.564Z,22.00
2022-08-23T00:56:58.602Z,21.90
2022-08-23T00:59:26.254Z,21.90
2022-08-23T01:01:53.372Z,21.80
2022-08-23T01:04:21.003Z,21.80
2022-08-23T01:07:02.388Z,21.70
2022-08-23T01:09:29.492Z,21.70
2022-08-23T01:12:06.708Z,21.60
2022-08-23T01:14:51.454Z,21.50
2022-08-23T01:17:28.708Z,21.50
2022-08-23T01:20:03.691Z,21.40
2022-08-23T01:22:41.360Z,21.30
2022-08-23T01:25:14.380Z,21.30
2022-08-23T01:27:45.895Z,21.30
2022-08-23T01:30:25.883Z,21.20
2022-08-23T01:33:02.055Z,21.10
2022-08-23T01:36:02.187Z,21.00
2022-08-23T01:38:32.844Z,21.00
2022-08-23T01:41:00.753Z,21.00
2022-08-23T01:43:28.717Z,21.00
2022-08-23T01:45:56.315Z,20.90
2022-08-23T01:48:24.730Z,20.90
2022-08-23T01:50:52.101Z,20.80
2022-08-23T01:53:19.457Z,20.80
2022-08-23T01:55:49.679Z,20.70
2022-08-23T01:58:19.123Z,20.70
2022-08-23T02:00:46.071Z,20.60
2022-08-23T02:03:13.719Z,20.60
2022-08-23T02:05:43.406Z,20.50
2022-08-23T02:08:30.871Z,20.50
2022-08-23T02:11:00.060Z,20.40
2022-08-23T02:13:27.202Z,20.40
2022-08-23T02:15:55.070Z,20.30
2022-08-23T02:18:23.386Z,20.30
2022-08-23T02:20:52.483Z,20.30
2022-08-23T02:23:21.707Z,20.20
2022-08-23T02:25:51.615Z,20.20
2022-08-23T02:28:21.159Z,20.20
2022-08-23T02:30:49.822Z,20.10
2022-08-23T02:33:17.781Z,20.10
2022-08-23T02:35:44.946Z,20.00
2022-08-23T02:38:13.299Z,20.00
2022-08-23T02:40:43.187Z,19.90
2022-08-23T02:43:12.156Z,19.90
2022-08-23T02:45:40.220Z,19.90
2022-08-23T02:48:09.284Z,19.90
2022-08-23T02:51:01.165Z,19.80
2022-08-23T02:53:29.368Z,19.80
2022-08-23T02:55:57.292Z,19.70
2022-08-23T02:58:26.099Z,19.70
2022-08-23T03:00:54.063Z,19.70
2022-08-23T03:03:23.840Z,19.60
2022-08-23T03:05:51.092Z,19.60
2022-08-23T03:08:20.635Z,19.60
2022-08-23T03:10:52.714Z,19.50
2022-08-23T03:13:20.891Z,19.50
2022-08-23T03:15:49.981Z,19.50
2022-08-23T03:18:17.662Z,19.40
2022-08-23T03:20:44.862Z,19.40
2022-08-23T03:23:13.361Z,19.40
2022-08-23T03:25:40.620Z,19.30
2022-08-23T03:28:16.011Z,19.30
2022-08-23T03:30:45.016Z,19.30
2022-08-23T03:33:13.082Z,19.30
2022-08-23T03:35:40.764Z,19.20
2022-08-23T03:38:09.973Z,19.20
2022-08-23T03:40:37.528Z,19.20
2022-08-23T03:43:05.356Z,19.10
2022-08-23T03:45:33.041Z,19.10
2022-08-23T03:48:00.138Z,19.10
2022-08-23T03:50:27.737Z,19.10
2022-08-23T03:52:54.874Z,19.00
2022-08-23T03:55:22.116Z,19.00
2022-08-23T03:57:50.076Z,19.00
2022-08-23T04:00:20.608Z,19.00
2022-08-23T04:02:49.879Z,18.90
2022-08-23T04:05:17.063Z,18.90
2022-08-23T04:08:13.935Z,18.90
2022-08-23T04:10:42.976Z,18.80
2022-08-23T04:13:10.445Z,18.80
2022-08-23T04:15:38.244Z,18.80
2022-08-23T04:18:09.257Z,18.80
2022-08-23T04:20:36.881Z,18.70
2022-08-23T04:23:05.468Z,18.70
2022-08-23T04:25:40.276Z,18.70
2022-08-23T04:28:07.513Z,18.70
2022-08-23T04:30:34.605Z,18.60
2022-08-23T04:33:04.517Z,18.60
2022-08-23T04:35:37.585Z,18.60
2022-08-23T04:38:04.992Z,18.50
2022-08-23T04:41:12.194Z,18.50
2022-08-23T04:43:41.251Z,18.50
2022-08-23T04:46:10.276Z,18.50
2022-08-23T04:48:38.102Z,18.40
2022-08-23T04:51:05.852Z,18.40
2022-08-23T04:53:35.717Z,18.40
2022-08-23T04:56:23.328Z,18.40
2022-08-23T04:58:50.961Z,18.40
2022-08-23T05:01:17.966Z,18.40
2022-08-23T05:03:46.605Z,18.40
2022-08-23T05:06:13.631Z,18.40
2022-08-23T05:08:41.708Z,18.40
2022-08-23T05:11:11.551Z,18.50
2022-08-23T05:13:40.784Z,18.50
2022-08-23T05:16:10.323Z,18.60
2022-08-23T05:18:43.226Z,18.60
2022-08-23T05:21:20.491Z,18.60
2022-08-23T05:23:50.923Z,18.60
2022-08-23T05:26:22.389Z,18.60
2022-08-23T05:28:50.491Z,18.70
2022-08-23T05:31:24.563Z,18.70
2022-08-23T05:33:57.883Z,18.70
2022-08-23T05:36:35.798Z,18.70
2022-08-23T05:39:04.331Z,18.80
2022-08-23T05:41:38.033Z,18.80
2022-08-23T05:44:10.471Z,18.80
2022-08-23T05:46:42.215Z,18.90
2022-08-23T05:49:29.186Z,18.90
2022-08-23T05:51:56.756Z,19.00
2022-08-23T05:54:27.729Z,19.00
2022-08-23T05:57:26.765Z,19.10
2022-08-23T05:59:53.679Z,19.10
2022-08-23T06:02:21.229Z,19.20
2022-08-23T06:04:48.148Z,19.30
2022-08-23T06:07:16.624Z,19.40
2022-08-23T06:09:43.796Z,19.40
2022-08-23T06:12:11.244Z,19.50
2022-08-23T06:14:39.099Z,19.60
2022-08-23T06:17:06.016Z,19.70
2022-08-23T06:19:33.480Z,19.80
2022-08-23T06:22:19.730Z,19.90
2022-08-23T06:24:48.041Z,20.00
2022-08-23T06:27:17.614Z,20.10
2022-08-23T06:29:45.992Z,20.30
2022-08-23T06:32:31.208Z,20.40
2022-08-23T06:35:38.699Z,20.50
2022-08-23T06:38:24.492Z,20.70
2022-08-23T06:41:07.484Z,20.90
2022-08-23T06:43:53.088Z,21.00
2022-08-23T06:46:30.875Z,21.20
2022-08-23T06:48:59.489Z,21.40
2022-08-23T06:51:41.556Z,21.50
2022-08-23T06:54:29.648Z,21.70
2022-08-23T06:57:20.535Z,21.90
2022-08-23T07:00:10.583Z,22.00
2022-08-23T07:02:56.584Z,22.20
2022-08-23T07:05:59.262Z,22.40
2022-08-23T07:08:29.105Z,22.50
2022-08-23T07:10:57.014Z,22.70
2022-08-23T07:13:24.006Z,22.80
2022-08-23T07:16:02.946Z,23.00
2022-08-23T07:18:33.119Z,23.10
2022-08-23T07:21:03.667Z,23.30
2022-08-23T07:23:33.659Z,23.40
2022-08-23T07:26:13.455Z,23.60
2022-08-23T07:28:41.877Z,23.70
2022-08-23T07:31:27.393Z,23.80
2022-08-23T07:33:58.802Z,24.00
2022-08-23T07:36:28.782Z,24.20
2022-08-23T07:38:56.303Z,24.30
2022-08-23T07:41:30.991Z,24.50
2022-08-23T07:44:02.903Z,24.60
2022-08-23T07:46:33.199Z,24.80
2022-08-23T07:49:04.166Z,24.90
2022-08-23T07:51:39.356Z,25.00
2022-08-23T07:54:10.285Z,25.20
2022-08-23T07:57:01.236Z,25.30
2022-08-23T07:59:52.448Z,25.50
2022-08-23T08:02:38.082Z,25.60
2022-08-23T08:05:08.098Z,25.70
2022-08-23T08:07:37.620Z,25.90
2022-08-23T08:10:06.168Z,26.00
2022-08-23T08:12:33.209Z,26.10
2022-08-23T08:15:09.675Z,26.20
2022-08-23T08:17:42.434Z,26.30
2022-08-23T08:20:21.287Z,26.40
2022-08-23T08:23:07.134Z,26.60
2022-08-23T08:26:13.688Z,26.70
2022-08-23T08:28:52.327Z,26.90
2022-08-23T08:31:19.718Z,27.00
2022-08-23T08:33:46.736Z,27.10
2022-08-23T08:36:47.485Z,27.20
2022-08-23T08:39:26.269Z,27.40
2022-08-23T08:42:31.536Z,27.50
2022-08-23T08:45:03.611Z,27.70
2022-08-23T08:48:03.653Z,27.70
2022-08-23T08:50:49.281Z,27.90
2022-08-23T08:53:34.426Z,28.00
2022-08-23T08:56:32.312Z,28.10
2022-08-23T08:59:26.873Z,28.30
2022-08-23T09:01:54.416Z,28.40
2022-08-23T09:04:37.171Z,28.60
2022-08-23T09:07:31.223Z,28.60
2022-08-23T09:10:42.827Z,28.80
2022-08-23T09:13:55.773Z,28.90
2022-08-23T09:16:57.680Z,29.00
2022-08-23T09:19:25.418Z,29.10
2022-08-23T09:22:10.552Z,29.20
2022-08-23T09:24:37.589Z,29.30
2022-08-23T09:27:11.257Z,29.40
2022-08-23T09:29:50.776Z,29.50
2022-08-23T09:32:37.863Z,29.60
2022-08-23T09:35:24.224Z,29.70
2022-08-23T09:38:20.529Z,29.80
2022-08-23T09:40:54.065Z,29.90
2022-08-23T09:43:27.579Z,30.00
2022-08-23T09:46:01.001Z,30.10
2022-08-23T09:48:43.194Z,30.20
2022-08-23T09:51:30.994Z,30.30
2022-08-23T09:54:18.905Z,30.40
2022-08-23T09:57:01.867Z,30.50
2022-08-23T10:00:20.374Z,30.60
2022-08-23T10:02:57.227Z,30.80
2022-08-23T10:05:41.235Z,30.80
2022-08-23T10:08:46.947Z,30.90
2022-08-23T10:11:31.150Z,31.00
2022-08-23T10:13:58.870Z,31.10
2022-08-23T10:16:48.580Z,31.20
2022-08-23T10:19:42.487Z,31.30
2022-08-23T10:22:26.856Z,31.40
2022-08-23T10:25:40.197Z,31.50
2022-08-23T10:28:39.415Z,31.70
2022-08-23T10:31:47.552Z,31.70
2022-08-23T10:34:35.696Z,31.90
2022-08-23T10:37:23.890Z,31.90
2022-08-23T10:40:45.936Z,32.00
2022-08-23T10:43:43.925Z,32.10
2022-08-23T10:46:11.717Z,32.20
2022-08-23T10:48:55.470Z,32.30
2022-08-23T10:51:36.987Z,32.40
2022-08-23T10:54:24.033Z,32.40
2022-08-23T10:56:57.769Z,32.60
2022-08-23T10:59:26.871Z,32.70
2022-08-23T11:02:36.310Z,32.70
2022-08-23T11:05:32.679Z,32.80
2022-08-23T11:08:33.552Z,32.90
2022-08-23T11:11:03.563Z,33.00
2022-08-23T11:13:35.149Z,33.00
2022-08-23T11:16:31.193Z,33.00
2022-08-23T11:18:59.021Z,33.20
2022-08-23T11:21:40.806Z,33.20
2022-08-23T11:24:14.185Z,33.20
2022-08-23T11:26:44.753Z,33.30
2022-08-23T11:29:21.488Z,33.30
2022-08-23T11:32:30.005Z,33.40
2022-08-23T11:35:40.509Z,33.50
2022-08-23T11:38:12.501Z,33.60
2022-08-23T11:40:53.236Z,33.60
2022-08-23T11:43:34.512Z,33.60
2022-08-23T11:46:35.024Z,33.50
2022-08-23T11:49:28.663Z,33.50
2022-08-23T11:52:31.659Z,33.60
2022-08-23T11:55:29.205Z,33.60
2022-08-23T11:58:23.361Z,33.60
2022-08-23T12:01:11.994Z,33.60
2022-08-23T12:03:51.979Z,33.60
2022-08-23T12:07:13.243Z,33.50
2022-08-23T12:09:40.153Z,33.60
2022-08-23T12:12:24.997Z,33.50
2022-08-23T12:15:01.190Z,33.50
2022-08-23T12:17:31.369Z,33.40
2022-08-23T12:20:05.650Z,33.40
2022-08-23T12:23:05.730Z,33.30
2022-08-23T12:25:37.261Z,33.40
2022-08-23T12:28:19.519Z,33.40
2022-08-23T12:31:24.643Z,33.30
2022-08-23T12:34:05.967Z,33.40
2022-08-23T12:36:44.878Z,33.40
2022-08-23T12:39:32.911Z,33.40
2022-08-23T12:42:13.779Z,33.40
2022-08-23T12:44:41.121Z,33.60
2022-08-23T12:47:22.065Z,33.60
2022-08-23T12:50:12.211Z,33.60
2022-08-23T12:52:40.362Z,33.70
2022-08-23T12:55:18.421Z,33.70
2022-08-23T12:57:55.166Z,33.90
2022-08-23T13:00:39.104Z,33.90
2022-08-23T13:03:44.299Z,34.00
2022-08-23T13:06:21.615Z,34.10
2022-08-23T13:08:56.992Z,34.10
2022-08-23T13:11:35.386Z,34.20
2022-08-23T13:14:49.417Z,34.30
2022-08-23T13:17:25.215Z,34.40
2022-08-23T13:20:06.532Z,34.50
2022-08-23T13:22:36.768Z,34.60
2022-08-23T13:25:29.149Z,34.50
2022-08-23T13:28:29.429Z,34.50
2022-08-23T13:31:10.944Z,34.50
2022-08-23T13:33:40.935Z,34.50
2022-08-23T13:36:21.272Z,34.30
2022-08-23T13:38:48.918Z,34.30
2022-08-23T13:41:39.003Z,34.20
2022-08-23T13:44:09.396Z,34.30
2022-08-23T13:46:46.929Z,34.30
2022-08-23T13:49:24.483Z,34.40
2022-08-23T13:52:18.686Z,34.50
2022-08-23T13:54:51.061Z,34.60
2022-08-23T13:57:21.591Z,34.70
2022-08-23T13:59:55.185Z,34.80
2022-08-23T14:02:24.640Z,34.80
2022-08-23T14:04:52.217Z,34.80
2022-08-23T14:07:19.905Z,34.90
2022-08-23T14:09:46.888Z,34.80
2022-08-23T14:12:27.776Z,34.70
2022-08-23T14:14:57.803Z,34.70
2022-08-23T14:17:25.388Z,34.70
2022-08-23T14:20:32.298Z,34.60
2022-08-23T14:22:40.440Z,34.50
2022-08-23T14:25:09.189Z,34.40
2022-08-23T14:27:40.851Z,34.30
2022-08-23T14:30:13.018Z,34.20
2022-08-23T14:32:41.073Z,34.20
2022-08-23T14:35:08.864Z,34.20
2022-08-23T14:40:25.534Z,34.20
2022-08-23T14:42:53.744Z,34.20
2022-08-23T14:45:21.821Z,34.30
2022-08-23T14:47:48.732Z,34.30
2022-08-23T14:50:16.118Z,34.40
2022-08-23T14:52:46.567Z,34.40
2022-08-23T14:55:14.846Z,34.50
2022-08-23T14:57:42.101Z,34.60
2022-08-23T15:00:14.772Z,34.60
2022-08-23T15:02:46.862Z,34.60
2022-08-23T15:05:15.058Z,34.60
2022-08-23T15:07:42.713Z,34.50
2022-08-23T15:10:49.661Z,34.50
2022-08-23T15:13:12.969Z,34.40
2022-08-23T15:15:43.164Z,34.30
2022-08-23T15:18:10.229Z,34.30
2022-08-23T15:20:39.023Z,34.20
2022-08-23T15:23:09.213Z,34.20
2022-08-23T15:25:40.054Z,34.10
2022-08-23T15:28:13.307Z,34.10
2022-08-23T15:30:42.321Z,34.10
2022-08-23T15:33:10.565Z,34.00
2022-08-23T15:35:46.958Z,34.00
2022-08-23T15:38:16.581Z,34.00
2022-08-23T15:40:44.269Z,34.10
2022-08-23T15:43:11.780Z,34.10
2022-08-23T15:45:39.487Z,34.10
2022-08-23T15:48:21.774Z,34.00
2022-08-23T15:50:49.732Z,34.10
2022-08-23T15:53:17.028Z,34.10
2022-08-23T15:55:46.310Z,34.10
2022-08-23T15:58:24.718Z,34.00
2022-08-23T16:00:53.755Z,34.00
2022-08-23T16:03:22.518Z,34.00
2022-08-23T16:05:53.708Z,34.00
2022-08-23T16:08:32.136Z,33.90
2022-08-23T16:11:02.268Z,33.90
2022-08-23T16:13:29.270Z,33.80
2022-08-23T16:15:57.500Z,33.80
2022-08-23T16:18:24.635Z,33.80
2022-08-23T16:20:54.216Z,33.70
2022-08-23T16:23:22.839Z,33.70
2022-08-23T16:25:52.058Z,33.60
2022-08-23T16:28:19.190Z,33.60
2022-08-23T16:30:46.652Z,33.60
2022-08-23T16:33:13.953Z,33.50
2022-08-23T16:35:40.854Z,33.50
2022-08-23T16:38:07.803Z,33.40
2022-08-23T16:40:34.993Z,33.40
2022-08-23T16:43:02.060Z,33.30
2022-08-23T16:45:29.142Z,33.30
2022-08-23T16:47:56.297Z,33.20
2022-08-23T16:50:23.523Z,33.20
2022-08-23T16:52:50.573Z,33.20
2022-08-23T16:55:17.463Z,33.10
2022-08-23T16:57:44.531Z,33.10
2022-08-23T17:00:13.879Z,33.00
2022-08-23T17:02:41.847Z,33.00
2022-08-23T17:05:14.263Z,32.90
2022-08-23T17:07:41.498Z,32.90
2022-08-23T17:10:11.317Z,32.80
2022-08-23T17:12:43.040Z,32.80
2022-08-23T17:15:20.225Z,32.80
2022-08-23T17:17:48.376Z,32.70
2022-08-23T17:20:16.808Z,32.70
2022-08-23T17:22:43.885Z,32.70
2022-08-23T17:25:11.793Z,32.60
2022-08-23T17:27:45.466Z,32.50
2022-08-23T17:30:16.857Z,32.50
2022-08-23T17:32:44.366Z,32.40
2022-08-23T17:35:15.110Z,32.40
2022-08-23T17:37:42.656Z,32.30
2022-08-23T17:40:16.958Z,32.20
2022-08-23T17:42:49.763Z,32.10
2022-08-23T17:45:17.803Z,32.00
2022-08-23T17:47:44.686Z,31.90
2022-08-23T17:50:12.376Z,31.80
2022-08-23T17:52:39.573Z,31.60
2022-08-23T17:55:07.807Z,31.50
2022-08-23T17:57:34.961Z,31.40
2022-08-23T18:00:03.435Z,31.30
2022-08-23T18:02:31.415Z,31.10
2022-08-23T18:04:58.654Z,31.00
2022-08-23T18:07:26.044Z,30.90
2022-08-23T18:09:53.002Z,30.80
2022-08-23T18:12:20.379Z,30.70
2022-08-23T18:14:47.288Z,30.60
2022-08-23T18:17:14.281Z,30.50
2022-08-23T18:19:41.491Z,30.30
2022-08-23T18:22:08.745Z,30.20
2022-08-23T18:24:35.649Z,30.10
2022-08-23T18:27:21.618Z,30.00
2022-08-23T18:29:51.569Z,29.80
2022-08-23T18:32:19.510Z,29.70
2022-08-23T18:34:46.511Z,29.60
2022-08-23T18:37:17.151Z,29.50
2022-08-23T18:39:44.842Z,29.30
2022-08-23T18:42:12.139Z,29.20
2022-08-23T18:44:39.602Z,29.10
2022-08-23T18:47:07.433Z,29.00
2022-08-23T18:49:36.106Z,28.90
2022-08-23T18:52:04.313Z,28.80
2022-08-23T18:54:34.109Z,28.70
2022-08-23T18:57:02.664Z,28.50
2022-08-23T18:59:30.762Z,28.40
2022-08-23T19:01:57.891Z,28.30
2022-08-23T19:04:25.819Z,28.20
2022-08-23T19:06:55.704Z,28.10
2022-08-23T19:09:22.785Z,28.00
2022-08-23T19:11:50.205Z,27.90
2022-08-23T19:14:17.176Z,27.80
2022-08-23T19:16:48.115Z,27.70
2022-08-23T19:19:16.767Z,27.60
2022-08-23T19:21:43.887Z,27.50
2022-08-23T19:24:11.161Z,27.40
2022-08-23T19:26:38.131Z,27.30
2022-08-23T19:29:09.263Z,27.20
2022-08-23T19:31:42.782Z,27.10
2022-08-23T19:34:11.286Z,27.00
2022-08-23T19:36:47.516Z,26.90
2022-08-23T19:39:17.937Z,26.90
2022-08-23T19:41:46.183Z,26.80
2022-08-23T19:44:13.078Z,26.70
2022-08-23T19:46:42.433Z,26.60
2022-08-23T19:49:11.897Z,26.60
2022-08-23T19:51:39.933Z,26.50
2022-08-23T19:54:11.457Z,26.40
2022-08-23T19:56:46.389Z,26.30
2022-08-23T19:59:20.231Z,26.30
2022-08-23T20:01:49.713Z,26.20
2022-08-23T20:04:18.064Z,26.10
2022-08-23T20:06:45.303Z,26.10
2022-08-23T20:09:12.335Z,26.00
2022-08-23T20:11:39.560Z,25.90
2022-08-23T20:14:07.587Z,25.80
2022-08-23T20:16:36.194Z,25.70
2022-08-23T20:19:06.279Z,25.70
2022-08-23T20:21:33.339Z,25.60
2022-08-23T20:24:06.491Z,25.60
2022-08-23T20:26:42.610Z,25.50
2022-08-23T20:29:19.723Z,25.40
2022-08-23T20:31:57.387Z,25.30
2022-08-23T20:34:27.160Z,25.30
2022-08-23T20:36:56.029Z,25.30
2022-08-23T20:39:24.416Z,25.20
2022-08-23T20:41:53.180Z,25.20
2022-08-23T20:44:22.924Z,25.10
2022-08-23T20:46:53.956Z,25.10
2022-08-23T20:49:24.181Z,25.00
2022-08-23T20:51:51.327Z,24.90
2022-08-23T20:54:22.077Z,24.90
2022-08-23T20:56:51.781Z,24.80
2022-08-23T20:59:19.453Z,24.80
2022-08-23T21:01:46.592Z,24.70
2022-08-23T21:04:13.826Z,24.70
2022-08-23T21:06:45.883Z,24.60
2022-08-23T21:09:19.131Z,24.50
2022-08-23T21:11:48.282Z,24.50
2022-08-23T21:14:17.271Z,24.40
2022-08-23T21:16:47.439Z,24.40
2022-08-23T21:19:15.556Z,24.40
2022-08-23T21:21:43.413Z,24.30
2022-08-23T21:24:12.500Z,24.30
2022-08-23T21:26:42.219Z,24.20
2022-08-23T21:29:10.630Z,24.20
2022-08-23T21:31:37.887Z,24.20
2022-08-23T21:34:06.017Z,24.20
2022-08-23T21:36:33.024Z,24.10
2022-08-23T21:38:59.963Z,24.10
2022-08-23T21:41:35.164Z,24.00
2022-08-23T21:44:05.669Z,24.00
2022-08-23T21:46:33.179Z,24.00
2022-08-23T21:49:00.414Z,24.00
2022-08-23T21:51:27.396Z,24.00
2022-08-23T21:53:54.331Z,23.90
2022-08-23T21:56:21.566Z,23.90
2022-08-23T21:58:50.708Z,23.90
2022-08-23T22:01:18.699Z,23.90
2022-08-23T22:03:45.715Z,23.90
2022-08-23T22:06:17.470Z,23.80
2022-08-23T22:08:45.963Z,23.80
2022-08-23T22:11:15.714Z,23.80
2022-08-23T22:13:43.527Z,23.80
2022-08-23T22:16:11.372Z,23.80
2022-08-23T22:18:38.712Z,23.80
2022-08-23T22:21:06.962Z,23.70
2022-08-23T22:23:36.393Z,23.70
2022-08-23T22:26:06.790Z,23.70
2022-08-23T22:28:36.054Z,23.70
2022-08-23T22:31:06.717Z,23.60
2022-08-23T22:33:33.880Z,23.60
2022-08-23T22:36:12.049Z,23.60
2022-08-23T22:38:42.786Z,23.40
2022-08-23T22:41:10.279Z,23.50
2022-08-23T22:43:37.305Z,23.50
2022-08-23T22:46:05.201Z,23.50
2022-08-23T22:48:37.223Z,23.50
2022-08-23T22:51:21.690Z,23.40
2022-08-23T22:53:54.437Z,23.40
2022-08-23T22:56:32.068Z,23.30
2022-08-23T22:59:01.012Z,23.30
2022-08-23T23:01:34.138Z,23.30
2022-08-23T23:04:06.008Z,23.20
2022-08-23T23:06:36.236Z,23.20
2022-08-23T23:09:06.870Z,23.20
2022-08-23T23:11:35.756Z,23.20
2022-08-23T23:14:05.392Z,23.10
2022-08-23T23:16:33.504Z,23.10
2022-08-23T23:19:19.203Z,23.10
2022-08-23T23:21:53.494Z,23.00
2022-08-23T23:24:34.129Z,23.00
2022-08-23T23:27:02.748Z,23.00
2022-08-23T23:29:32.089Z,22.90
2022-08-23T23:31:59.592Z,22.90
2022-08-23T23:34:28.177Z,22.90
2022-08-23T23:36:59.359Z,22.80
2022-08-23T23:39:27.610Z,22.80
2022-08-23T23:41:54.857Z,22.80
2022-08-23T23:44:22.459Z,22.70
2022-08-23T23:46:59.444Z,22.70
2022-08-23T23:49:31.998Z,22.70
2022-08-23T23:52:00.000Z,22.70
2022-08-23T23:54:26.857Z,22.60
2022-08-23T23:56:53.898Z,22.60
2022-08-23T23:59:20.758Z,22.60
